Time;durP1;ratioP1;P1;durP2;ratioP2;P2;SDS_P1;SDS_P2;PMS_P1;PMS_P2;Temp;Humidity;BMP_temperature;BMP_pressure;BME280_temperature;BME280_humidity;BME280_pressure;Samples;Min_cycle;Max_cycle;Signal;HPM_P1;HPM_P2
2023/12/21 00:01:33;;;;;;;44.08;27.40;;;;;;;1.25;100.00;99891.09;5008322;28;20057;-70
2023/12/21 00:03:59;;;;;;;43.85;26.05;;;;;;;1.26;100.00;99917.44;5001162;28;20506;-69
2023/12/21 00:06:24;;;;;;;47.05;27.95;;;;;;;1.16;100.00;99900.69;4991343;28;20026;-70
2023/12/21 00:08:50;;;;;;;45.83;27.67;;;;;;;1.15;100.00;99898.94;5009121;28;20037;-70
2023/12/21 00:11:15;;;;;;;48.03;28.48;;;;;;;1.14;100.00;99889.53;5007051;28;20065;-69
2023/12/21 00:13:41;;;;;;;46.88;28.17;;;;;;;1.05;100.00;99889.81;5009521;28;20033;-69
2023/12/21 00:16:06;;;;;;;45.78;28.08;;;;;;;0.82;100.00;99892.50;4993537;28;20035;-70
2023/12/21 00:18:32;;;;;;;48.25;29.13;;;;;;;0.67;100.00;99883.06;4998573;28;20097;-70
2023/12/21 00:20:57;;;;;;;50.22;29.30;;;;;;;0.59;100.00;99861.38;5003732;28;20772;-70
2023/12/21 00:23:23;;;;;;;49.15;30.38;;;;;;;-0.02;100.00;99744.78;4997138;28;20500;-69
2023/12/21 00:25:48;;;;;;;54.20;33.72;;;;;;;0.90;100.00;99896.44;4988685;28;20034;-69
2023/12/21 00:28:14;;;;;;;54.47;31.73;;;;;;;1.00;100.00;99897.91;4995548;28;20034;-69
2023/12/21 00:30:40;;;;;;;54.83;33.63;;;;;;;0.60;100.00;99827.56;5003446;28;20500;-69
2023/12/21 00:33:05;;;;;;;53.72;32.30;;;;;;;0.60;100.00;99820.81;5000938;28;20111;-69
2023/12/21 00:35:30;;;;;;;50.30;31.67;;;;;;;0.99;100.00;99886.88;5006370;28;20052;-69
2023/12/21 00:37:56;;;;;;;52.58;29.33;;;;;;;0.79;100.00;99860.16;5004516;28;20500;-69
2023/12/21 00:40:21;;;;;;;48.72;29.40;;;;;;;0.87;100.00;99880.97;4996971;28;20042;-69
2023/12/21 00:42:47;;;;;;;48.88;30.48;;;;;;;0.80;100.00;99875.50;5003266;28;20037;-70
2023/12/21 00:45:13;;;;;;;49.67;31.73;;;;;;;0.86;100.00;99882.66;5008336;28;20026;-70
2023/12/21 00:47:39;;;;;;;52.13;31.65;;;;;;;0.58;100.00;99824.91;4972146;28;20574;-69
2023/12/21 00:50:06;;;;;;;51.25;30.27;;;;;;;0.86;100.00;99867.41;5003624;28;20057;-69
2023/12/21 00:52:31;;;;;;;48.28;29.80;;;;;;;0.88;100.00;99888.69;5003549;28;20145;-69
2023/12/21 00:54:57;;;;;;;48.15;31.20;;;;;;;0.52;100.00;99829.59;5010085;28;20033;-69
2023/12/21 00:57:23;;;;;;;52.15;30.33;;;;;;;0.47;100.00;99824.22;4996393;28;20034;-70
2023/12/21 00:59:49;;;;;;;54.38;31.77;;;;;;;0.85;100.00;99888.50;4991027;28;20030;-70
2023/12/21 01:02:14;;;;;;;52.22;31.55;;;;;;;0.08;100.00;99749.69;4991252;28;20157;-70
2023/12/21 01:04:40;;;;;;;51.08;31.83;;;;;;;0.91;100.00;99875.31;4990742;28;20109;-70
2023/12/21 01:07:05;;;;;;;52.30;30.80;;;;;;;0.72;100.00;99868.13;4990960;28;20041;-70
2023/12/21 01:09:31;;;;;;;53.90;31.60;;;;;;;0.63;100.00;99876.91;4990910;28;20041;-69
2023/12/21 01:11:57;;;;;;;52.75;30.73;;;;;;;0.51;100.00;99853.22;4990988;28;20030;-70
2023/12/21 01:14:22;;;;;;;52.53;31.50;;;;;;;0.59;100.00;99856.28;4990761;28;20522;-70
2023/12/21 01:16:48;;;;;;;51.40;31.48;;;;;;;0.70;100.00;99857.88;4990887;28;20114;-69
2023/12/21 01:19:14;;;;;;;52.83;32.78;;;;;;;0.75;100.00;99842.94;4990937;28;20097;-69
2023/12/21 01:21:39;;;;;;;52.53;32.25;;;;;;;0.83;100.00;99851.94;4990616;28;20519;-69
2023/12/21 01:24:05;;;;;;;56.25;33.53;;;;;;;0.89;100.00;99851.47;4990538;28;20030;-70
2023/12/21 01:26:31;;;;;;;53.13;31.40;;;;;;;0.89;100.00;99848.94;4990438;28;20092;-70
2023/12/21 01:28:56;;;;;;;52.47;30.00;;;;;;;0.67;100.00;99844.09;4990787;28;20536;-69
2023/12/21 01:31:22;;;;;;;53.80;30.48;;;;;;;0.44;100.00;99843.44;4989772;28;20042;-70
2023/12/21 01:33:47;;;;;;;51.55;31.75;;;;;;;0.28;100.00;99841.53;4990941;28;20034;-69
2023/12/21 01:36:13;;;;;;;57.55;32.28;;;;;;;0.34;100.00;99836.88;4990734;28;20038;-70
2023/12/21 01:38:38;;;;;;;62.85;32.97;;;;;;;0.45;100.00;99825.78;4990700;28;20041;-70
2023/12/21 01:41:04;;;;;;;56.13;32.67;;;;;;;0.43;100.00;99812.06;4990787;28;20413;-70
2023/12/21 01:43:29;;;;;;;51.00;32.30;;;;;;;0.56;100.00;99825.59;4990832;28;20065;-69
2023/12/21 01:45:57;;;;;;;52.92;33.17;;;;;;;0.21;100.00;99769.13;4990364;28;20060;-70
2023/12/21 01:48:23;;;;;;;51.55;31.85;;;;;;;0.60;100.00;99825.91;4990467;28;20033;-70
2023/12/21 01:50:50;;;;;;;51.00;31.38;;;;;;;0.64;100.00;99830.41;4989506;28;20042;-70
2023/12/21 01:53:16;;;;;;;54.05;31.90;;;;;;;0.61;100.00;99814.97;4990198;28;20037;-70
2023/12/21 01:55:44;;;;;;;51.08;31.88;;;;;;;0.61;100.00;99806.44;4990298;28;20542;-70
2023/12/21 01:58:10;;;;;;;50.65;30.90;;;;;;;0.32;100.00;99778.38;4990249;28;20092;-69
2023/12/21 02:00:36;;;;;;;54.42;30.63;;;;;;;0.45;100.00;99830.84;4990500;28;20031;-69
2023/12/21 02:03:02;;;;;;;50.75;29.77;;;;;;;0.35;100.00;99828.47;4990535;28;20041;-69
2023/12/21 02:05:27;;;;;;;54.70;32.22;;;;;;;0.28;100.00;99831.38;4990424;28;20409;-70
2023/12/21 02:07:53;;;;;;;54.40;34.13;;;;;;;0.32;100.00;99828.25;4990560;28;20043;-69
2023/12/21 02:10:18;;;;;;;53.10;33.22;;;;;;;0.19;100.00;99793.56;4992067;28;20404;-70
2023/12/21 02:12:44;;;;;;;60.40;34.30;;;;;;;0.40;100.00;99816.06;4993982;28;20026;-69
2023/12/21 02:15:10;;;;;;;56.42;33.03;;;;;;;0.50;100.00;99825.19;4975251;28;20038;-70
2023/12/21 02:17:38;;;;;;;54.67;33.47;;;;;;;0.45;100.00;99822.34;4993867;28;20492;-69
2023/12/21 02:20:06;;;;;;;55.60;32.70;;;;;;;0.15;100.00;99787.38;4993504;28;20030;-69
2023/12/21 02:22:34;;;;;;;57.30;35.03;;;;;;;0.26;100.00;99818.59;4943120;28;20413;-70
2023/12/21 02:25:00;;;;;;;55.27;34.27;;;;;;;0.27;100.00;99819.44;4993694;28;20022;-69
2023/12/21 02:27:26;;;;;;;60.00;33.93;;;;;;;0.08;100.00;99795.38;4959107;28;20416;-69
2023/12/21 02:29:51;;;;;;;62.38;36.90;;;;;;;0.21;100.00;99816.50;4993674;28;20507;-69
2023/12/21 02:32:17;;;;;;;58.78;34.58;;;;;;;0.15;100.00;99782.31;4993687;28;20045;-69
2023/12/21 02:34:42;;;;;;;63.92;35.25;;;;;;;0.24;100.00;99794.75;4993609;28;20105;-69
2023/12/21 02:37:08;;;;;;;62.03;35.95;;;;;;;0.26;100.00;99793.19;4993080;28;20023;-70
2023/12/21 02:39:33;;;;;;;57.43;36.27;;;;;;;0.20;100.00;99782.63;4993472;28;20160;-69
2023/12/21 02:41:59;;;;;;;60.97;35.67;;;;;;;-0.23;100.00;99696.88;4993466;28;20037;-69
2023/12/21 02:44:24;;;;;;;58.17;35.30;;;;;;;0.28;100.00;99772.97;4993005;28;20052;-69
2023/12/21 02:46:50;;;;;;;60.10;34.97;;;;;;;0.27;100.00;99774.63;4993384;28;20049;-69
2023/12/21 02:49:15;;;;;;;58.30;35.13;;;;;;;-0.07;100.00;99701.31;4991611;28;20058;-70
2023/12/21 02:51:41;;;;;;;56.92;34.58;;;;;;;0.17;100.00;99729.09;4992953;28;20125;-70
2023/12/21 02:54:06;;;;;;;55.95;34.40;;;;;;;0.49;100.00;99776.06;4993165;28;20463;-70
2023/12/21 02:56:32;;;;;;;59.33;33.83;;;;;;;0.53;100.00;99772.94;4993190;28;20077;-70
2023/12/21 02:58:57;;;;;;;57.72;35.40;;;;;;;0.47;100.00;99767.44;4993186;28;20504;-70
2023/12/21 03:01:23;;;;;;;57.00;33.08;;;;;;;0.05;100.00;99701.28;4992807;28;20113;-70
2023/12/21 03:03:48;;;;;;;55.70;33.58;;;;;;;0.50;100.00;99766.78;4992914;28;20130;-70
2023/12/21 03:06:14;;;;;;;51.80;31.75;;;;;;;0.47;100.00;99754.75;4992903;28;20473;-70
2023/12/21 03:08:39;;;;;;;52.20;32.58;;;;;;;0.48;100.00;99754.84;4992954;28;20037;-70
2023/12/21 03:11:05;;;;;;;58.47;35.08;;;;;;;0.56;100.00;99759.56;4992862;28;20037;-70
2023/12/21 03:13:30;;;;;;;55.35;33.60;;;;;;;0.57;100.00;99751.16;4992873;28;20447;-70
2023/12/21 03:15:56;;;;;;;54.15;33.83;;;;;;;0.60;100.00;99744.63;4993154;28;20113;-70
2023/12/21 03:18:21;;;;;;;53.47;32.92;;;;;;;0.60;100.00;99751.38;4992535;28;20068;-70
2023/12/21 03:20:46;;;;;;;63.65;37.55;;;;;;;0.54;100.00;99762.00;4992702;28;20381;-70
2023/12/21 03:23:12;;;;;;;71.93;39.85;;;;;;;0.16;100.00;99709.56;4992557;28;20034;-70
2023/12/21 03:25:37;;;;;;;64.32;36.13;;;;;;;0.47;100.00;99758.19;4991200;28;20037;-70
2023/12/21 03:28:05;;;;;;;57.08;34.40;;;;;;;0.51;100.00;99750.75;4992588;28;20026;-70
2023/12/21 03:30:31;;;;;;;59.35;36.90;;;;;;;0.53;100.00;99739.06;4992645;28;20030;-71
2023/12/21 03:32:56;;;;;;;56.75;32.97;;;;;;;0.60;100.00;99744.63;4990595;28;20096;-70
2023/12/21 03:35:22;;;;;;;50.95;31.45;;;;;;;0.58;100.00;99745.31;4992193;28;20500;-70
2023/12/21 03:37:47;;;;;;;56.33;32.25;;;;;;;0.60;100.00;99738.69;5023943;28;20034;-70
2023/12/21 03:40:13;;;;;;;56.15;32.22;;;;;;;0.42;100.00;99707.88;4992309;28;20461;-70
2023/12/21 03:42:39;;;;;;;52.58;32.35;;;;;;;0.45;100.00;99743.63;4992065;28;20038;-70
2023/12/21 03:45:04;;;;;;;53.25;31.70;;;;;;;0.39;100.00;99718.72;4992018;28;20030;-70
2023/12/21 03:47:30;;;;;;;53.88;32.30;;;;;;;0.34;100.00;99727.69;4992203;28;20523;-70
2023/12/21 03:49:57;;;;;;;55.50;33.05;;;;;;;0.03;100.00;99681.66;4991699;28;20078;-70
2023/12/21 03:52:23;;;;;;;59.83;33.10;;;;;;;0.29;100.00;99747.69;4992017;28;20026;-70
2023/12/21 03:54:48;;;;;;;57.63;33.42;;;;;;;0.44;100.00;99752.03;4991979;28;20038;-70
2023/12/21 03:57:14;;;;;;;57.95;32.75;;;;;;;0.54;100.00;99739.13;4992067;28;20057;-70
2023/12/21 03:59:41;;;;;;;56.95;32.72;;;;;;;0.11;100.00;99673.75;4992041;28;20026;-70
2023/12/21 04:02:07;;;;;;;51.92;30.92;;;;;;;0.45;100.00;99715.69;4992132;28;20027;-70
2023/12/21 04:04:32;;;;;;;55.65;33.75;;;;;;;0.60;100.00;99754.78;4991608;28;20112;-71
2023/12/21 04:06:58;;;;;;;57.38;33.95;;;;;;;0.63;100.00;99751.56;4991707;28;20029;-70
2023/12/21 04:09:25;;;;;;;57.70;34.40;;;;;;;0.60;100.00;99759.84;4991729;28;20030;-70
2023/12/21 04:11:50;;;;;;;56.95;33.78;;;;;;;0.53;100.00;99769.53;5022141;28;20035;-70
2023/12/21 04:14:16;;;;;;;52.10;32.15;;;;;;;0.50;100.00;99766.78;4991827;28;20402;-70
2023/12/21 04:16:41;;;;;;;57.25;31.48;;;;;;;0.43;100.00;99763.81;4991551;28;20022;-70
2023/12/21 04:19:07;;;;;;;53.25;33.40;;;;;;;0.56;100.00;99768.06;4991334;28;20745;-70
2023/12/21 04:21:33;;;;;;;52.45;31.48;;;;;;;0.59;100.00;99772.47;4991397;28;20044;-70
2023/12/21 04:23:58;;;;;;;53.10;32.92;;;;;;;0.55;100.00;99771.38;4991373;28;20109;-70
2023/12/21 04:26:24;;;;;;;53.05;30.90;;;;;;;0.48;100.00;99771.75;4990279;28;20030;-70
2023/12/21 04:28:49;;;;;;;51.80;31.63;;;;;;;0.38;100.00;99770.25;4991273;28;20034;-70
2023/12/21 04:31:22;;;;;;;53.58;30.80;;;;;;;0.28;100.00;99763.69;4991313;28;20106;-70
2023/12/21 04:33:49;;;;;;;47.30;30.02;;;;;;;0.08;100.00;99751.34;4990782;28;20034;-70
2023/12/21 04:36:15;;;;;;;49.58;30.05;;;;;;;0.07;100.00;99758.06;4991597;28;20037;-70
2023/12/21 04:38:41;;;;;;;48.70;30.08;;;;;;;-0.38;100.00;99694.19;4991182;28;20030;-70
2023/12/21 04:41:06;;;;;;;51.33;30.92;;;;;;;0.02;100.00;99750.94;4991283;28;20124;-70
2023/12/21 04:43:32;;;;;;;52.97;31.65;;;;;;;0.02;100.00;99756.88;4989906;28;20038;-70
2023/12/21 04:45:57;;;;;;;56.22;31.80;;;;;;;0.04;100.00;99754.44;4991315;28;20026;-70
2023/12/21 04:48:23;;;;;;;53.53;31.73;;;;;;;-0.06;100.00;99758.91;4990921;28;20038;-70
2023/12/21 04:50:48;;;;;;;50.88;30.25;;;;;;;-0.17;100.00;99757.31;4990950;28;20059;-69
2023/12/21 04:53:34;;;;;;;54.85;32.33;;;;;;;-0.46;100.00;99714.72;4969129;28;20053;-70
2023/12/21 04:56:03;;;;;;;55.07;33.73;;;;;;;-0.28;100.00;99761.63;4969303;28;20501;-70
2023/12/21 04:58:28;;;;;;;56.95;31.90;;;;;;;-0.48;100.00;99732.38;4969449;28;20086;-70
2023/12/21 05:01:14;;;;;;;58.58;32.17;;;;;;;-0.69;100.00;99696.28;4968718;28;20134;-70
2023/12/21 05:03:40;;;;;;;48.13;30.70;;;;;;;-0.43;100.00;99742.84;4973841;28;20501;-71
2023/12/21 05:06:06;;;;;;;53.97;32.77;;;;;;;-0.31;100.00;99751.28;4988511;28;20049;-72
2023/12/21 05:08:31;;;;;;;50.20;29.40;;;;;;;-0.35;100.00;99761.97;4983368;28;20046;-70
2023/12/21 05:10:56;;;;;;;50.47;31.98;;;;;;;-0.27;100.00;99768.47;4945692;28;20079;-70
2023/12/21 05:13:22;;;;;;;51.42;30.65;;;;;;;-0.21;100.00;99768.03;4949623;29;20549;-70
2023/12/21 05:15:47;;;;;;;53.08;33.10;;;;;;;-0.08;100.00;99770.59;4950017;29;20035;-70
2023/12/21 05:18:13;;;;;;;69.22;40.47;;;;;;;-0.11;100.00;99780.56;4949676;29;20465;-70
2023/12/21 05:20:38;;;;;;;69.43;43.17;;;;;;;-0.27;100.00;99744.78;4949728;29;20059;-70
2023/12/21 05:23:04;;;;;;;54.65;33.55;;;;;;;-0.31;100.00;99763.97;4949962;29;20047;-72
2023/12/21 05:25:30;;;;;;;53.88;31.67;;;;;;;-0.33;100.00;99751.16;4966549;28;20501;-70
2023/12/21 05:27:55;;;;;;;50.73;31.33;;;;;;;-0.24;100.00;99766.13;4968602;28;20192;-70
2023/12/21 05:30:21;;;;;;;53.85;31.45;;;;;;;-0.40;100.00;99749.00;4968393;28;20077;-70
2023/12/21 05:32:47;;;;;;;54.50;32.80;;;;;;;-0.14;100.00;99782.00;4968562;28;20093;-70
2023/12/21 05:35:14;;;;;;;50.90;30.67;;;;;;;-0.05;100.00;99787.69;4975999;28;20042;-70
2023/12/21 05:37:40;;;;;;;54.88;29.42;;;;;;;-0.42;100.00;99725.19;4990541;28;20507;-70
2023/12/21 05:40:06;;;;;;;52.38;31.08;;;;;;;-0.27;100.00;99767.59;4990511;28;20058;-70
2023/12/21 05:42:32;;;;;;;52.53;30.02;;;;;;;-0.09;100.00;99801.81;4989582;28;20027;-70
2023/12/21 05:44:58;;;;;;;52.78;29.30;;;;;;;-0.62;100.00;99722.91;4992691;28;20520;-70
2023/12/21 05:47:24;;;;;;;49.03;28.60;;;;;;;-0.14;100.00;99787.94;4959747;28;20066;-71
2023/12/21 05:49:50;;;;;;;51.35;30.30;;;;;;;-0.10;100.00;99783.97;4994344;28;20062;-70
2023/12/21 05:52:16;;;;;;;55.67;31.23;;;;;;;-0.01;100.00;99813.38;4994033;28;20055;-71
2023/12/21 05:54:41;;;;;;;48.80;29.70;;;;;;;-0.40;100.00;99735.44;4993892;28;20122;-70
2023/12/21 05:57:10;;;;;;;54.35;29.63;;;;;;;-0.04;100.00;99808.13;4993734;28;20030;-70
2023/12/21 05:59:37;;;;;;;49.05;28.38;;;;;;;-0.19;100.00;99823.16;4994323;28;20038;-70
2023/12/21 06:02:03;;;;;;;54.25;30.55;;;;;;;-0.07;100.00;99827.31;4994607;28;20108;-70
2023/12/21 06:04:28;;;;;;;50.17;28.50;;;;;;;-0.63;100.00;99721.19;4993008;28;20030;-70
2023/12/21 06:06:54;;;;;;;53.53;30.17;;;;;;;-0.04;100.00;99833.50;4994287;28;20040;-70
2023/12/21 06:09:19;;;;;;;49.53;28.83;;;;;;;-0.02;100.00;99801.47;4993994;28;20026;-70
2023/12/21 06:11:45;;;;;;;45.27;28.40;;;;;;;0.16;100.00;99821.25;4983650;28;20130;-70
2023/12/21 06:14:11;;;;;;;56.95;36.67;;;;;;;0.20;100.00;99825.78;4980249;28;20378;-70
2023/12/21 06:16:36;;;;;;;109.90;56.10;;;;;;;0.26;100.00;99825.31;4988291;28;20034;-71
2023/12/21 06:19:09;;;;;;;87.78;45.88;;;;;;;0.27;100.00;99845.72;4993810;28;20041;-70
2023/12/21 06:21:36;;;;;;;95.45;46.90;;;;;;;0.20;100.00;99835.94;4976566;28;20049;-70
2023/12/21 06:24:03;;;;;;;52.57;29.83;;;;;;;0.17;100.00;99848.41;4973888;28;20030;-70
2023/12/21 06:26:28;;;;;;;59.13;33.83;;;;;;;0.19;100.00;99839.25;4990363;28;20034;-70
2023/12/21 06:28:54;;;;;;;49.75;29.48;;;;;;;0.22;100.00;99847.06;4993675;28;20038;-70
2023/12/21 06:31:19;;;;;;;50.47;29.67;;;;;;;0.17;100.00;99840.78;5011386;28;20480;-70
2023/12/21 06:33:45;;;;;;;45.42;29.55;;;;;;;0.20;100.00;99846.09;5004319;28;20051;-70
2023/12/21 06:36:10;;;;;;;51.50;31.83;;;;;;;0.24;100.00;99844.66;4994637;28;20052;-70
2023/12/21 06:38:36;;;;;;;47.47;28.70;;;;;;;0.26;100.00;99843.06;5000802;28;20390;-70
2023/12/21 06:41:01;;;;;;;47.90;26.70;;;;;;;0.30;100.00;99850.13;5004271;28;20476;-70
2023/12/21 06:43:27;;;;;;;47.10;28.55;;;;;;;0.23;100.00;99835.25;5009045;28;20037;-70
2023/12/21 06:45:52;;;;;;;46.65;29.25;;;;;;;0.39;100.00;99858.38;4993906;28;20038;-70
2023/12/21 06:48:18;;;;;;;44.92;28.77;;;;;;;0.48;100.00;99864.06;4994040;28;20038;-71
2023/12/21 06:50:44;;;;;;;43.60;27.60;;;;;;;0.34;100.00;99839.41;4993545;28;20077;-70
2023/12/21 06:53:15;;;;;;;45.10;28.48;;;;;;;0.48;100.00;99861.50;4995076;28;20453;-71
2023/12/21 06:55:42;;;;;;;50.40;30.42;;;;;;;0.58;100.00;99870.63;4995181;28;20034;-71
2023/12/21 06:58:07;;;;;;;45.63;28.50;;;;;;;0.51;100.00;99854.88;4976026;28;20141;-71
2023/12/21 07:00:33;;;;;;;49.50;29.13;;;;;;;0.61;100.00;99858.16;5002607;28;20111;-71
2023/12/21 07:03:00;;;;;;;42.60;26.75;;;;;;;0.43;100.00;99806.13;4991887;28;20017;-70
2023/12/21 07:05:25;;;;;;;49.28;27.90;;;;;;;0.85;100.00;99875.81;5002630;28;20401;-71
2023/12/21 07:07:51;;;;;;;49.25;27.40;;;;;;;0.93;100.00;99878.84;5011434;28;20120;-70
2023/12/21 07:10:16;;;;;;;47.63;28.17;;;;;;;0.91;100.00;99878.75;5010924;28;20033;-71
2023/12/21 07:12:42;;;;;;;44.95;27.33;;;;;;;0.85;100.00;99844.41;5012151;28;20755;-71
2023/12/21 07:15:07;;;;;;;45.80;27.35;;;;;;;1.02;100.00;99861.63;4996299;28;20114;-71
2023/12/21 07:17:33;;;;;;;44.15;27.00;;;;;;;1.29;100.00;99871.84;4992805;28;20802;-70
2023/12/21 07:19:58;;;;;;;41.05;25.63;;;;;;;1.44;100.00;99875.34;4992252;28;20027;-70
2023/12/21 07:22:24;;;;;;;42.40;26.27;;;;;;;1.64;100.00;99883.38;4991866;28;20549;-70
2023/12/21 07:24:49;;;;;;;38.75;24.70;;;;;;;1.81;100.00;99881.00;4991747;28;20036;-70
2023/12/21 07:27:15;;;;;;;41.67;27.58;;;;;;;1.93;100.00;99874.13;4992087;28;20022;-70
2023/12/21 07:29:43;;;;;;;40.78;24.67;;;;;;;2.04;100.00;99874.78;4990124;28;20378;-70
2023/12/21 07:32:09;;;;;;;44.13;25.63;;;;;;;1.81;100.00;99813.19;4989818;28;20023;-70
2023/12/21 07:34:35;;;;;;;41.65;25.52;;;;;;;2.33;100.00;99870.59;4991811;28;20065;-70
2023/12/21 07:37:00;;;;;;;35.72;23.50;;;;;;;2.28;100.00;99823.59;4991836;28;20524;-70
2023/12/21 07:39:26;;;;;;;38.03;25.13;;;;;;;2.46;100.00;99821.25;4991812;28;20030;-70
2023/12/21 07:41:51;;;;;;;36.58;23.48;;;;;;;2.76;100.00;99870.59;4991839;28;20034;-70
2023/12/21 07:44:17;;;;;;;37.47;24.10;;;;;;;2.90;100.00;99876.47;4991835;28;20569;-70
2023/12/21 07:46:42;;;;;;;33.92;22.60;;;;;;;3.03;100.00;99868.75;4991781;28;20037;-70
2023/12/21 07:49:08;;;;;;;34.88;24.02;;;;;;;3.11;100.00;99865.78;4991944;28;20042;-70
2023/12/21 07:51:33;;;;;;;39.67;22.92;;;;;;;3.16;100.00;99849.06;4991446;28;20041;-70
2023/12/21 07:53:59;;;;;;;35.75;22.83;;;;;;;3.32;100.00;99866.09;4991318;28;20117;-70
2023/12/21 07:56:24;;;;;;;37.67;23.80;;;;;;;3.42;100.00;99868.38;4991543;28;20029;-70
2023/12/21 07:58:50;;;;;;;35.40;22.60;;;;;;;3.50;100.00;99868.78;4991834;28;20033;-70
2023/12/21 08:01:16;;;;;;;34.97;23.25;;;;;;;3.58;100.00;99865.00;4991767;28;20030;-70
2023/12/21 08:03:41;;;;;;;36.33;23.10;;;;;;;3.64;100.00;99873.00;4991821;28;20786;-70
2023/12/21 08:06:07;;;;;;;36.75;24.67;;;;;;;3.75;100.00;99877.81;4991318;28;20230;-70
2023/12/21 08:08:32;;;;;;;34.85;25.10;;;;;;;3.86;100.00;99882.72;4990305;28;20038;-70
2023/12/21 08:10:58;;;;;;;39.67;25.65;;;;;;;3.80;100.00;99861.94;4991153;28;20026;-70
2023/12/21 08:13:23;;;;;;;37.05;24.52;;;;;;;3.64;100.00;99821.03;4991311;28;20404;-70
2023/12/21 08:15:49;;;;;;;42.55;24.02;;;;;;;3.54;100.00;99797.59;4991217;28;20033;-70
2023/12/21 08:18:14;;;;;;;32.45;22.08;;;;;;;4.11;100.00;99889.16;4989981;28;20045;-70
2023/12/21 08:20:42;;;;;;;38.35;24.67;;;;;;;4.18;100.00;99888.66;4991000;28;20109;-71
2023/12/21 08:23:08;;;;;;;34.60;20.88;;;;;;;4.16;100.00;99887.72;4991293;28;20041;-70
2023/12/21 08:25:33;;;;;;;36.53;23.17;;;;;;;4.25;100.00;99887.31;4972713;28;20050;-70
2023/12/21 08:27:59;;;;;;;34.15;20.98;;;;;;;4.31;100.00;99879.97;4989812;28;20520;-70
2023/12/21 08:30:25;;;;;;;35.17;22.33;;;;;;;4.15;100.00;99849.28;4991022;28;20049;-70
2023/12/21 08:32:50;;;;;;;39.05;22.80;;;;;;;4.44;100.00;99889.16;4991330;28;20539;-70
2023/12/21 08:35:16;;;;;;;37.70;23.30;;;;;;;4.47;100.00;99881.63;4990934;28;20026;-70
2023/12/21 08:37:43;;;;;;;33.03;20.85;;;;;;;4.56;100.00;99893.13;4990542;28;20041;-70
2023/12/21 08:40:09;;;;;;;32.25;21.00;;;;;;;4.56;100.00;99895.69;4990866;28;20034;-70
2023/12/21 08:42:34;;;;;;;33.05;20.98;;;;;;;4.63;100.00;99882.44;5005276;28;20034;-70
2023/12/21 08:45:04;;;;;;;34.05;21.38;;;;;;;4.42;100.00;99834.50;4990864;28;20064;-70
2023/12/21 08:47:30;;;;;;;30.77;20.58;;;;;;;4.73;100.00;99883.78;4991015;28;20157;-70
2023/12/21 08:50:03;;;;;;;32.50;19.70;;;;;;;4.82;100.00;99866.34;4990523;28;20082;-70
2023/12/21 08:52:28;;;;;;;31.23;20.10;;;;;;;4.61;100.00;99799.66;4990917;28;20112;-70
2023/12/21 08:54:54;;;;;;;31.98;21.33;;;;;;;4.99;100.00;99852.69;4989698;28;20030;-70
2023/12/21 08:57:21;;;;;;;37.25;23.23;;;;;;;4.69;100.00;99786.44;4990807;28;20026;-70
2023/12/21 08:59:47;;;;;;;33.85;21.23;;;;;;;5.19;100.00;99857.91;4990323;28;20456;-70
2023/12/21 09:02:13;;;;;;;38.38;24.15;;;;;;;5.34;100.00;99855.22;4990517;28;20037;-70
2023/12/21 09:04:39;;;;;;;32.03;19.30;;;;;;;5.19;100.00;99825.53;4990125;28;20405;-70
2023/12/21 09:07:04;;;;;;;31.55;20.13;;;;;;;5.32;100.00;99844.91;4990700;28;20031;-70
2023/12/21 09:09:31;;;;;;;33.58;22.23;;;;;;;5.50;100.00;99846.59;4989054;28;20523;-70
2023/12/21 09:11:57;;;;;;;33.97;21.63;;;;;;;5.67;100.00;99842.28;4989377;28;20039;-70
2023/12/21 09:14:24;;;;;;;35.05;21.00;;;;;;;5.82;100.00;99844.66;4989785;28;20030;-70
2023/12/21 09:16:51;;;;;;;28.65;18.38;;;;;;;5.79;100.00;99806.94;4990487;28;20416;-71
2023/12/21 09:19:17;;;;;;;32.08;19.27;;;;;;;6.01;100.00;99846.41;4991952;28;20027;-70
2023/12/21 09:21:42;;;;;;;31.25;20.30;;;;;;;5.95;100.00;99835.84;4993556;28;20515;-70
2023/12/21 09:24:08;;;;;;;31.65;19.60;;;;;;;6.01;100.00;99840.38;4993571;28;20070;-71
2023/12/21 09:26:34;;;;;;;27.08;18.27;;;;;;;6.18;100.00;99833.47;4994459;28;20408;-70
2023/12/21 09:29:03;;;;;;;33.05;20.08;;;;;;;6.36;100.00;99834.28;4994112;28;20138;-71
2023/12/21 09:31:32;;;;;;;29.65;19.35;;;;;;;6.54;100.00;99836.78;4986699;28;20031;-70
2023/12/21 09:33:59;;;;;;;31.17;20.08;;;;;;;6.34;100.00;99792.28;5008127;28;20038;-70
2023/12/21 09:36:24;;;;;;;28.80;19.70;;;;;;;6.68;100.00;99827.09;4994286;28;20033;-70
2023/12/21 09:38:50;;;;;;;28.80;19.30;;;;;;;6.56;100.00;99794.09;4994490;28;20026;-71
2023/12/21 09:41:15;;;;;;;27.42;17.23;;;;;;;6.91;100.00;99819.47;4987704;28;20102;-70
2023/12/21 09:43:43;;;;;;;26.60;17.65;;;;;;;6.92;100.00;99793.88;4993947;28;20038;-70
2023/12/21 09:46:08;;;;;;;27.05;17.75;;;;;;;7.18;100.00;99809.44;4993486;28;20047;-70
2023/12/21 09:48:38;;;;;;;28.02;18.23;;;;;;;7.23;100.00;99789.09;4993326;28;20062;-71
2023/12/21 09:51:05;;;;;;;27.58;18.25;;;;;;;7.31;100.00;99779.97;4993218;28;20137;-70
2023/12/21 09:53:33;;;;;;;26.98;18.48;;;;;;;7.42;100.00;99778.69;4993675;28;20022;-70
2023/12/21 09:56:00;;;;;;;25.70;17.60;;;;;;;7.49;100.00;99779.84;4993831;28;20022;-70
2023/12/21 09:58:25;;;;;;;29.05;16.67;;;;;;;7.03;100.00;99701.91;4984142;28;20501;-70
2023/12/21 10:00:51;;;;;;;25.00;17.23;;;;;;;7.11;100.00;99721.03;4993017;28;20080;-70
2023/12/21 10:03:17;;;;;;;25.00;16.50;;;;;;;7.13;100.00;99704.00;4993216;28;20050;-71
2023/12/21 10:05:43;;;;;;;26.30;16.38;;;;;;;7.64;100.00;99768.38;4993116;28;20062;-70
2023/12/21 10:08:09;;;;;;;25.05;16.02;;;;;;;7.67;100.00;99761.66;4992405;28;20503;-71
2023/12/21 10:10:38;;;;;;;24.98;16.42;;;;;;;7.77;100.00;99752.59;4989199;28;20042;-70
2023/12/21 10:13:04;;;;;;;18.80;13.20;;;;;;;7.73;100.00;99750.75;4994655;28;20031;-70
2023/12/21 10:15:32;;;;;;;20.45;14.32;;;;;;;7.80;100.00;99745.00;4994231;28;20783;-70
2023/12/21 10:17:58;;;;;;;25.20;14.67;;;;;;;7.85;100.00;99743.47;4996150;28;20032;-70
2023/12/21 10:20:24;;;;;;;22.83;15.43;;;;;;;7.61;100.00;99666.38;4995477;28;20399;-70
2023/12/21 10:22:50;;;;;;;22.95;15.27;;;;;;;8.14;100.00;99735.94;4998195;28;20030;-69
2023/12/21 10:25:15;;;;;;;19.98;12.90;;;;;;;8.10;100.00;99710.94;5012699;28;20084;-70
2023/12/21 10:27:52;;;;;;;21.92;13.45;;;;;;;8.32;100.00;99725.38;5012446;28;20062;-68
2023/12/21 10:30:23;;;;;;;22.00;13.45;;;;;;;8.46;100.00;99723.31;5011779;28;20085;-69
2023/12/21 10:32:52;;;;;;;21.35;13.07;;;;;;;8.56;100.00;99721.91;5007121;28;20030;-69
2023/12/21 10:35:19;;;;;;;18.48;11.38;;;;;;;8.67;100.00;99722.28;5006934;28;20034;-70
2023/12/21 10:37:47;;;;;;;16.15;11.60;;;;;;;8.75;100.00;99720.84;4993561;28;20031;-69
2023/12/21 10:40:14;;;;;;;16.17;10.88;;;;;;;8.84;100.00;99708.25;5011417;28;20014;-69
2023/12/21 10:42:46;;;;;;;19.10;12.35;;;;;;;8.90;100.00;99695.56;5012545;28;20026;-69
2023/12/21 10:45:21;;;;;;;17.27;11.40;;;;;;;9.02;100.00;99705.38;4990005;28;20385;-69
2023/12/21 10:48:00;;;;;;;18.75;12.38;;;;;;;9.01;100.00;99692.44;5011627;28;20385;-69
2023/12/21 10:50:28;;;;;;;17.75;11.90;;;;;;;9.10;100.00;99686.69;5001205;28;20056;-69
2023/12/21 10:52:56;;;;;;;17.17;11.55;;;;;;;9.09;100.00;99685.84;4991067;28;20038;-69
2023/12/21 10:55:22;;;;;;;18.50;11.35;;;;;;;9.19;100.00;99653.50;5007862;28;20037;-69
2023/12/21 10:57:51;;;;;;;18.38;11.68;;;;;;;9.38;100.00;99654.91;5012438;28;20032;-69
2023/12/21 11:00:17;;;;;;;16.53;11.13;;;;;;;9.33;100.00;99641.03;4999479;28;20110;-69
2023/12/21 11:02:46;;;;;;;14.85;10.25;;;;;;;9.46;100.00;99637.06;4995107;28;20104;-69
2023/12/21 11:05:21;;;;;;;13.55;9.32;;;;;;;9.46;100.00;99645.69;5011949;28;20084;-69
2023/12/21 11:07:50;;;;;;;16.65;10.70;;;;;;;9.46;100.00;99643.13;5012057;28;20041;-69
2023/12/21 11:10:23;;;;;;;16.15;10.30;;;;;;;9.53;100.00;99645.06;5008550;28;20029;-70
2023/12/21 11:12:49;;;;;;;14.10;9.30;;;;;;;9.46;100.00;99643.13;4994487;28;20433;-69